Wilson Mersin — P3PA6 — position and weather

sailwx.info

Track history (hours):
 
Tides and Currents Weather Stations Pressure Air Temp Water Temp Dewpoint Dewpoint Depression Visibility Wind Speed Wind Dir Waves Ship Positions

Wilson Mersin

Last reported at 2015-Aug-30 13:11 UTC. Time now 2015-Sep-03 08:55 UTC.
Position N 59°59' E 026°44'.

Length 107 m; draft 4.7 m.

Type: Cargo ship. MMSI: 210072000.

Date/timePositionNaut miles runAvg speedWind from/ knotsBaromVisibWave heightAir tempDewpointWater temp
2015-Aug-30 13:11N 59°59' E 026°44'6613.1
2015-Aug-30 08:09N 59°44' E 024°35'38612.6
2015-Aug-29 01:33N 55°36' E 015°22'1312.9
2015-Aug-29 00:33N 55°30' E 015°02'1313.1
2015-Aug-28 23:33N 55°23' E 014°42'1313.0
2015-Aug-28 22:34N 55°13' E 014°27'1313.0
2015-Aug-28 21:33N 55°03' E 014°13'1312.8
2015-Aug-28 20:33N 54°58' E 013°53'1313.1
2015-Aug-28 19:33N 54°53' E 013°31'4013.1
2015-Aug-28 16:29N 54°36' E 012°28'1213.4
2015-Aug-28 15:33N 54°27' E 012°14'1313.1
2015-Aug-28 14:33N 54°18' E 011°56'1313.1
2015-Aug-28 13:33N 54°11' E 011°38'11 0.4
2015-Aug-27 12:26N 54°05' E 011°22'0 0.0
2015-Aug-27 11:20N 54°05' E 011°22'0 0.0
2015-Aug-27 10:26N 54°05' E 011°22'0 0.0
2015-Aug-27 09:32N 54°05' E 011°22'0 0.0
2015-Aug-27 06:32N 54°05' E 011°22'0 0.0
2015-Aug-26 11:26N 54°05' E 011°22'0 0.0
2015-Aug-26 10:32N 54°05' E 011°22'0 0.0
2015-Aug-25 23:26N 54°05' E 011°22'3 3.4
2015-Aug-25 22:30N 54°03' E 011°25'7 7.8
2015-Aug-25 21:34N 53°55' E 011°26'2 1.5
2015-Aug-25 20:33N 53°54' E 011°27'0 0.0
2015-Aug-25 19:33N 53°54' E 011°27'0 0.0
2015-Aug-25 18:33N 53°54' E 011°27'0 0.0
2015-Aug-25 17:33N 53°54' E 011°27'0 0.0
2015-Aug-25 16:33N 53°54' E 011°27'0 0.0
2015-Aug-25 15:33N 53°54' E 011°27'0 0.0
2015-Aug-25 14:33N 53°54' E 011°27'0 0.0
2015-Aug-25 13:33N 53°54' E 011°27'0 0.0
2015-Aug-25 12:33N 53°54' E 011°27'0 0.0
2015-Aug-25 11:33N 53°54' E 011°27'0 0.0
2015-Aug-25 10:30N 53°54' E 011°27'0 0.0
2015-Aug-25 09:33N 53°54' E 011°27'0 0.0
2015-Aug-25 08:30N 53°54' E 011°27'0 0.0
2015-Aug-25 07:33N 53°54' E 011°27'0 0.0
2015-Aug-25 06:33N 53°54' E 011°27'0 0.0
2015-Aug-25 05:33N 53°54' E 011°27'0 0.0
2015-Aug-25 04:33N 53°54' E 011°27'0 0.0
2015-Aug-25 03:33N 53°54' E 011°27'0 0.0
2015-Aug-25 02:30N 53°54' E 011°27'0 0.0
2015-Aug-25 01:33N 53°54' E 011°27'0 0.0
2015-Aug-25 00:33N 53°54' E 011°27'0 0.0
2015-Aug-24 23:30N 53°54' E 011°27'0 0.0
2015-Aug-24 22:30N 53°54' E 011°27'0 0.0
2015-Aug-24 21:30N 53°54' E 011°27'0 0.0
2015-Aug-24 20:33N 53°54' E 011°27'0 0.0
2015-Aug-24 19:33N 53°54' E 011°27'0 0.0
2015-Aug-24 18:33N 53°54' E 011°27'0 0.0
2015-Aug-24 17:33N 53°54' E 011°27'0 0.0
2015-Aug-24 16:33N 53°54' E 011°27'0 0.0
2015-Aug-24 15:33N 53°54' E 011°27'0 0.0
2015-Aug-24 14:33N 53°54' E 011°27'0 0.0
2015-Aug-24 13:33N 53°54' E 011°27'0 0.0
2015-Aug-24 12:33N 53°54' E 011°27'0 0.0
2015-Aug-24 11:33N 53°54' E 011°27'0 0.0
2015-Aug-24 10:27N 53°54' E 011°27'0 0.0
2015-Aug-24 09:33N 53°54' E 011°27'0 0.0
2015-Aug-24 08:33N 53°54' E 011°27'0 0.0
2015-Aug-24 07:33N 53°54' E 011°27'0 0.0
2015-Aug-24 06:33N 53°54' E 011°27'0 0.0
2015-Aug-24 05:33N 53°54' E 011°27'0 0.0
2015-Aug-24 04:27N 53°54' E 011°27'0 0.0
2015-Aug-24 03:33N 53°54' E 011°27'0 0.0
2015-Aug-24 02:33N 53°54' E 011°27'0 0.0
2015-Aug-24 01:33N 53°54' E 011°27'0 0.0
2015-Aug-24 00:33N 53°54' E 011°27'0 0.0
2015-Aug-23 23:33N 53°54' E 011°27'0 0.0
2015-Aug-23 22:33N 53°54' E 011°27'0 0.0
2015-Aug-23 21:30N 53°54' E 011°27'0 0.0
2015-Aug-23 20:33N 53°54' E 011°27'0 0.0
2015-Aug-23 19:33N 53°54' E 011°27'0 0.0
2015-Aug-23 18:33N 53°54' E 011°27'0 0.0
2015-Aug-23 17:30N 53°54' E 011°27'0 0.0
2015-Aug-23 16:27N 53°54' E 011°27'0 0.0
2015-Aug-23 15:33N 53°54' E 011°27'0 0.0
2015-Aug-23 14:33N 53°54' E 011°27'0 0.0
2015-Aug-23 13:33N 53°54' E 011°27'0 0.0
2015-Aug-23 12:33N 53°54' E 011°27'0 0.0
2015-Aug-23 11:33N 53°54' E 011°27'0 0.0
2015-Aug-23 10:33N 53°54' E 011°27'0 0.0
2015-Aug-23 09:30N 53°54' E 011°27'0 0.0
2015-Aug-23 08:30N 53°54' E 011°27'0 0.0
2015-Aug-23 07:33N 53°54' E 011°27'0 0.0
2015-Aug-23 06:33N 53°54' E 011°27'0 0.0
2015-Aug-23 05:33N 53°54' E 011°27'0 0.0
2015-Aug-23 04:30N 53°54' E 011°27'0 0.0
2015-Aug-23 03:33N 53°54' E 011°27'0 0.0
2015-Aug-23 02:33N 53°54' E 011°27'0 0.0
2015-Aug-23 01:33N 53°54' E 011°27'0 0.0
2015-Aug-23 00:33N 53°54' E 011°27'0 0.0
2015-Aug-22 23:33N 53°54' E 011°27'0 0.0
2015-Aug-22 22:33N 53°54' E 011°27'0 0.0
2015-Aug-22 21:33N 53°54' E 011°27'3 3.1
2015-Aug-22 20:34N 53°57' E 011°25'7 7.2
2015-Aug-22 19:34N 54°04' E 011°27'10 9.8
2015-Aug-22 18:33N 54°13' E 011°34'1212.3
2015-Aug-22 17:34N 54°22' E 011°49'1312.5
2015-Aug-22 16:33N 54°27' E 012°08'1212.1
2015-Aug-22 15:33N 54°38' E 012°18'1312.6
2015-Aug-22 14:34N 54°45' E 012°36'1412.3
2015-Aug-22 13:24N 54°51' E 012°59'1012.4
2015-Aug-22 12:33N 54°54' E 013°16'1312.9
2015-Aug-22 11:31N 54°59' E 013°38'1212.7
2015-Aug-22 10:33N 55°03' E 013°58'1212.0
2015-Aug-22 09:32N 55°11' E 014°14'1312.9
2015-Aug-22 08:33N 55°21' E 014°27'1312.6
2015-Aug-22 07:33N 55°30' E 014°44'1212.5
2015-Aug-22 06:33N 55°36' E 015°03'1212.2
2015-Aug-22 05:33N 55°42' E 015°22'1212.5
2015-Aug-22 04:33N 55°48' E 015°41'1312.8
2015-Aug-22 03:33N 55°54' E 016°01'1212.5
2015-Aug-22 02:34N 56°01' E 016°20'1212.5
2015-Aug-22 01:33N 56°07' E 016°40'1312.5
2015-Aug-22 00:34N 56°14' E 016°58'1212.4
2015-Aug-21 23:34N 56°22' E 017°16'1212.4
2015-Aug-21 22:34N 56°29' E 017°33'1212.4
2015-Aug-21 21:33N 56°37' E 017°51'1212.5
2015-Aug-21 20:33N 56°45' E 018°09'1212.4
2015-Aug-21 19:34N 56°53' E 018°27'1212.3
2015-Aug-21 18:33N 57°02' E 018°41'1312.3
2015-Aug-21 17:31N 57°13' E 018°54'1212.4
2015-Aug-21 16:33N 57°22' E 019°07'1212.5
2015-Aug-21 15:33N 57°32' E 019°21'1212.4
2015-Aug-21 14:33N 57°42' E 019°35'16012.0
2015-Aug-21 01:18N 59°34' E 023°13'912.3
2015-Aug-21 00:32N 59°34' E 023°32'1212.4
2015-Aug-20 23:33N 59°32' E 023°56'1312.7
2015-Aug-20 22:34N 59°30' E 024°20'8 7.5
2015-Aug-20 21:32N 59°29' E 024°35'0 0.0
2015-Aug-20 20:31N 59°29' E 024°35'0 0.0
2015-Aug-20 19:32N 59°29' E 024°35'7 6.5
2015-Aug-20 18:32N 59°33' E 024°25'1212.7
2015-Aug-20 17:33N 59°45' E 024°17'1312.5
2015-Aug-20 16:31N 59°48' E 024°41'2512.7
2015-Aug-20 14:33N 59°54' E 025°30'1312.7
2015-Aug-20 13:33N 59°56' E 025°55'  
Track history (hours):
 
Tides and Currents Weather Stations Pressure Air Temp Water Temp Dewpoint Dewpoint Depression Visibility Wind Speed Wind Dir Waves Ship Positions

Wilson Mersin

Last reported at 2015-Aug-30 13:11 UTC. Time now 2015-Sep-03 08:55 UTC.
Position N 59°59' E 026°44'.

Length 107 m; draft 4.7 m.

Type: Cargo ship. MMSI: 210072000.

Date/timePositionNaut miles runAvg speedWind from/ knotsBaromVisibWave heightAir tempDewpointWater temp
2015-Aug-30 13:11N 59°59' E 026°44'6613.1
2015-Aug-30 08:09N 59°44' E 024°35'38612.6
2015-Aug-29 01:33N 55°36' E 015°22'1312.9
2015-Aug-29 00:33N 55°30' E 015°02'1313.1
2015-Aug-28 23:33N 55°23' E 014°42'1313.0
2015-Aug-28 22:34N 55°13' E 014°27'1313.0
2015-Aug-28 21:33N 55°03' E 014°13'1312.8
2015-Aug-28 20:33N 54°58' E 013°53'1313.1
2015-Aug-28 19:33N 54°53' E 013°31'4013.1
2015-Aug-28 16:29N 54°36' E 012°28'1213.4
2015-Aug-28 15:33N 54°27' E 012°14'1313.1
2015-Aug-28 14:33N 54°18' E 011°56'1313.1
2015-Aug-28 13:33N 54°11' E 011°38'11 0.4
2015-Aug-27 12:26N 54°05' E 011°22'0 0.0
2015-Aug-27 11:20N 54°05' E 011°22'0 0.0
2015-Aug-27 10:26N 54°05' E 011°22'0 0.0
2015-Aug-27 09:32N 54°05' E 011°22'0 0.0
2015-Aug-27 06:32N 54°05' E 011°22'0 0.0
2015-Aug-26 11:26N 54°05' E 011°22'0 0.0
2015-Aug-26 10:32N 54°05' E 011°22'0 0.0
2015-Aug-25 23:26N 54°05' E 011°22'3 3.4
2015-Aug-25 22:30N 54°03' E 011°25'7 7.8
2015-Aug-25 21:34N 53°55' E 011°26'2 1.5
2015-Aug-25 20:33N 53°54' E 011°27'0 0.0
2015-Aug-25 19:33N 53°54' E 011°27'0 0.0
2015-Aug-25 18:33N 53°54' E 011°27'0 0.0
2015-Aug-25 17:33N 53°54' E 011°27'0 0.0
2015-Aug-25 16:33N 53°54' E 011°27'0 0.0
2015-Aug-25 15:33N 53°54' E 011°27'0 0.0
2015-Aug-25 14:33N 53°54' E 011°27'0 0.0
2015-Aug-25 13:33N 53°54' E 011°27'0 0.0
2015-Aug-25 12:33N 53°54' E 011°27'0 0.0
2015-Aug-25 11:33N 53°54' E 011°27'0 0.0
2015-Aug-25 10:30N 53°54' E 011°27'0 0.0
2015-Aug-25 09:33N 53°54' E 011°27'0 0.0
2015-Aug-25 08:30N 53°54' E 011°27'0 0.0
2015-Aug-25 07:33N 53°54' E 011°27'0 0.0
2015-Aug-25 06:33N 53°54' E 011°27'0 0.0
2015-Aug-25 05:33N 53°54' E 011°27'0 0.0
2015-Aug-25 04:33N 53°54' E 011°27'0 0.0
2015-Aug-25 03:33N 53°54' E 011°27'0 0.0
2015-Aug-25 02:30N 53°54' E 011°27'0 0.0
2015-Aug-25 01:33N 53°54' E 011°27'0 0.0
2015-Aug-25 00:33N 53°54' E 011°27'0 0.0
2015-Aug-24 23:30N 53°54' E 011°27'0 0.0
2015-Aug-24 22:30N 53°54' E 011°27'0 0.0
2015-Aug-24 21:30N 53°54' E 011°27'0 0.0
2015-Aug-24 20:33N 53°54' E 011°27'0 0.0
2015-Aug-24 19:33N 53°54' E 011°27'0 0.0
2015-Aug-24 18:33N 53°54' E 011°27'0 0.0
2015-Aug-24 17:33N 53°54' E 011°27'0 0.0
2015-Aug-24 16:33N 53°54' E 011°27'0 0.0
2015-Aug-24 15:33N 53°54' E 011°27'0 0.0
2015-Aug-24 14:33N 53°54' E 011°27'0 0.0
2015-Aug-24 13:33N 53°54' E 011°27'0 0.0
2015-Aug-24 12:33N 53°54' E 011°27'0 0.0
2015-Aug-24 11:33N 53°54' E 011°27'0 0.0
2015-Aug-24 10:27N 53°54' E 011°27'0 0.0
2015-Aug-24 09:33N 53°54' E 011°27'0 0.0
2015-Aug-24 08:33N 53°54' E 011°27'0 0.0
2015-Aug-24 07:33N 53°54' E 011°27'0 0.0
2015-Aug-24 06:33N 53°54' E 011°27'0 0.0
2015-Aug-24 05:33N 53°54' E 011°27'0 0.0
2015-Aug-24 04:27N 53°54' E 011°27'0 0.0
2015-Aug-24 03:33N 53°54' E 011°27'0 0.0
2015-Aug-24 02:33N 53°54' E 011°27'0 0.0
2015-Aug-24 01:33N 53°54' E 011°27'0 0.0
2015-Aug-24 00:33N 53°54' E 011°27'0 0.0
2015-Aug-23 23:33N 53°54' E 011°27'0 0.0
2015-Aug-23 22:33N 53°54' E 011°27'0 0.0
2015-Aug-23 21:30N 53°54' E 011°27'0 0.0
2015-Aug-23 20:33N 53°54' E 011°27'0 0.0
2015-Aug-23 19:33N 53°54' E 011°27'0 0.0
2015-Aug-23 18:33N 53°54' E 011°27'0 0.0
2015-Aug-23 17:30N 53°54' E 011°27'0 0.0
2015-Aug-23 16:27N 53°54' E 011°27'0 0.0
2015-Aug-23 15:33N 53°54' E 011°27'0 0.0
2015-Aug-23 14:33N 53°54' E 011°27'0 0.0
2015-Aug-23 13:33N 53°54' E 011°27'0 0.0
2015-Aug-23 12:33N 53°54' E 011°27'0 0.0
2015-Aug-23 11:33N 53°54' E 011°27'0 0.0
2015-Aug-23 10:33N 53°54' E 011°27'0 0.0
2015-Aug-23 09:30N 53°54' E 011°27'0 0.0
2015-Aug-23 08:30N 53°54' E 011°27'0 0.0
2015-Aug-23 07:33N 53°54' E 011°27'0 0.0
2015-Aug-23 06:33N 53°54' E 011°27'0 0.0
2015-Aug-23 05:33N 53°54' E 011°27'0 0.0
2015-Aug-23 04:30N 53°54' E 011°27'0 0.0
2015-Aug-23 03:33N 53°54' E 011°27'0 0.0
2015-Aug-23 02:33N 53°54' E 011°27'0 0.0
2015-Aug-23 01:33N 53°54' E 011°27'0 0.0
2015-Aug-23 00:33N 53°54' E 011°27'0 0.0
2015-Aug-22 23:33N 53°54' E 011°27'0 0.0
2015-Aug-22 22:33N 53°54' E 011°27'0 0.0
2015-Aug-22 21:33N 53°54' E 011°27'3 3.1
2015-Aug-22 20:34N 53°57' E 011°25'7 7.2
2015-Aug-22 19:34N 54°04' E 011°27'10 9.8
2015-Aug-22 18:33N 54°13' E 011°34'1212.3
2015-Aug-22 17:34N 54°22' E 011°49'1312.5
2015-Aug-22 16:33N 54°27' E 012°08'1212.1
2015-Aug-22 15:33N 54°38' E 012°18'1312.6
2015-Aug-22 14:34N 54°45' E 012°36'1412.3
2015-Aug-22 13:24N 54°51' E 012°59'1012.4
2015-Aug-22 12:33N 54°54' E 013°16'1312.9
2015-Aug-22 11:31N 54°59' E 013°38'1212.7
2015-Aug-22 10:33N 55°03' E 013°58'1212.0
2015-Aug-22 09:32N 55°11' E 014°14'1312.9
2015-Aug-22 08:33N 55°21' E 014°27'1312.6
2015-Aug-22 07:33N 55°30' E 014°44'1212.5
2015-Aug-22 06:33N 55°36' E 015°03'1212.2
2015-Aug-22 05:33N 55°42' E 015°22'1212.5
2015-Aug-22 04:33N 55°48' E 015°41'1312.8
2015-Aug-22 03:33N 55°54' E 016°01'1212.5
2015-Aug-22 02:34N 56°01' E 016°20'1212.5
2015-Aug-22 01:33N 56°07' E 016°40'1312.5
2015-Aug-22 00:34N 56°14' E 016°58'1212.4
2015-Aug-21 23:34N 56°22' E 017°16'1212.4
2015-Aug-21 22:34N 56°29' E 017°33'1212.4
2015-Aug-21 21:33N 56°37' E 017°51'1212.5
2015-Aug-21 20:33N 56°45' E 018°09'1212.4
2015-Aug-21 19:34N 56°53' E 018°27'1212.3
2015-Aug-21 18:33N 57°02' E 018°41'1312.3
2015-Aug-21 17:31N 57°13' E 018°54'1212.4
2015-Aug-21 16:33N 57°22' E 019°07'1212.5
2015-Aug-21 15:33N 57°32' E 019°21'1212.4
2015-Aug-21 14:33N 57°42' E 019°35'16012.0
2015-Aug-21 01:18N 59°34' E 023°13'912.3
2015-Aug-21 00:32N 59°34' E 023°32'1212.4
2015-Aug-20 23:33N 59°32' E 023°56'1312.7
2015-Aug-20 22:34N 59°30' E 024°20'8 7.5
2015-Aug-20 21:32N 59°29' E 024°35'0 0.0
2015-Aug-20 20:31N 59°29' E 024°35'0 0.0
2015-Aug-20 19:32N 59°29' E 024°35'7 6.5
2015-Aug-20 18:32N 59°33' E 024°25'1212.7
2015-Aug-20 17:33N 59°45' E 024°17'1312.5
2015-Aug-20 16:31N 59°48' E 024°41'2512.7
2015-Aug-20 14:33N 59°54' E 025°30'1312.7
2015-Aug-20 13:33N 59°56' E 025°55'  

Dump ship's entire track history